createdAt,value
2023-01-17T13:59:49.768Z,51.291492
2023-01-17T14:00:50.946Z,51.291676
2023-01-17T14:01:49.918Z,51.291874
2023-01-17T14:02:53.703Z,51.291878
2023-01-17T14:03:49.736Z,51.291862
2023-01-17T14:04:49.894Z,51.291519
2023-01-17T14:05:49.725Z,51.291611
2023-01-17T14:06:49.702Z,51.291473
2023-01-17T14:07:49.699Z,51.291523
2023-01-17T14:08:49.715Z,51.291759
2023-01-17T14:09:50.172Z,51.291332
2023-01-17T14:10:49.732Z,51.290993
2023-01-17T14:11:49.680Z,51.290905
2023-01-17T14:12:49.601Z,51.291183
2023-01-17T14:13:49.610Z,51.291290
2023-01-17T14:14:49.612Z,51.291233
2023-01-17T14:15:49.616Z,51.291237
2023-01-17T14:16:49.605Z,51.291183
2023-01-17T14:17:49.575Z,51.291119
2023-01-17T14:18:49.771Z,51.291229
2023-01-17T14:19:49.527Z,51.291363
2023-01-17T14:20:49.546Z,51.291214
2023-01-17T14:21:49.548Z,51.291256
2023-01-17T14:22:49.712Z,51.291199
2023-01-17T14:23:50.270Z,51.290833
2023-01-17T14:24:50.290Z,51.291080
2023-01-17T14:25:49.478Z,51.291252
2023-01-17T14:26:49.488Z,51.291283
2023-01-17T14:27:49.513Z,51.291225
2023-01-17T14:28:50.099Z,51.291233
2023-01-17T14:29:49.465Z,51.291130
2023-01-17T14:30:49.443Z,51.291130
2023-01-17T14:31:49.504Z,51.291103
2023-01-17T14:32:49.408Z,51.291126
2023-01-17T14:33:49.384Z,51.291107
2023-01-17T14:34:49.360Z,51.291061
2023-01-17T14:35:49.369Z,51.291100
2023-01-17T14:36:49.357Z,51.291225
2023-01-17T14:37:49.337Z,51.291206
2023-01-17T14:38:49.322Z,51.291203
2023-01-17T14:39:49.326Z,51.291229
2023-01-17T14:40:49.306Z,51.291260
2023-01-17T14:41:49.331Z,51.291241
2023-01-17T14:42:49.258Z,51.291206
2023-01-17T14:43:49.274Z,51.291313
2023-01-17T14:44:49.213Z,51.291264
2023-01-17T14:45:49.260Z,51.291187
2023-01-17T14:46:49.244Z,51.291260
2023-01-17T14:47:49.214Z,51.291309
2023-01-17T14:48:49.242Z,51.291019
2023-01-17T14:49:49.182Z,51.291122
2023-01-17T14:50:49.245Z,51.291180
2023-01-17T14:51:49.175Z,51.291134
2023-01-17T14:52:49.166Z,51.291134
2023-01-17T14:53:49.154Z,51.291187
2023-01-17T14:54:49.146Z,51.291172
2023-01-17T14:55:49.154Z,51.291218
2023-01-17T14:56:49.102Z,51.291279
2023-01-17T14:57:49.095Z,51.291245
2023-01-17T14:58:49.060Z,51.291168
2023-01-17T14:59:49.092Z,51.291088
2023-01-17T15:00:49.166Z,51.291065
2023-01-17T15:02:05.761Z,51.291080
2023-01-17T15:02:50.222Z,51.291027
2023-01-17T15:03:49.065Z,51.291050
2023-01-17T15:04:49.021Z,51.291115
2023-01-17T15:05:48.993Z,51.291161
2023-01-17T15:06:49.010Z,51.291306
2023-01-17T15:07:48.959Z,51.291252
2023-01-17T15:08:48.974Z,51.291389
2023-01-17T15:09:48.955Z,51.291508
2023-01-17T15:10:48.934Z,51.291325
2023-01-17T15:11:49.039Z,51.291519
2023-01-17T15:12:48.923Z,51.291557
2023-01-17T15:13:48.929Z,51.291573
2023-01-17T15:14:48.875Z,51.291824
2023-01-17T15:15:48.921Z,51.291595
2023-01-17T15:16:48.916Z,51.291698
2023-01-17T15:17:48.892Z,51.291729
2023-01-17T15:18:48.881Z,51.291698
2023-01-17T15:19:48.816Z,51.291706
2023-01-17T15:20:48.828Z,51.291679
2023-01-17T15:21:48.802Z,51.291416
2023-01-17T15:22:48.834Z,51.291542
2023-01-17T15:23:48.788Z,51.291515
2023-01-17T15:24:48.800Z,51.291576
2023-01-17T15:25:48.761Z,51.291737
2023-01-17T15:26:48.737Z,51.291592
2023-01-17T15:27:48.810Z,51.291851
2023-01-17T15:28:48.705Z,51.291832
2023-01-17T15:29:48.757Z,51.291897
2023-01-17T15:30:51.344Z,51.292023
2023-01-17T15:31:48.824Z,51.291920
2023-01-17T15:32:48.677Z,51.291920
2023-01-17T15:33:48.741Z,51.291889
2023-01-17T15:34:48.723Z,51.291779
2023-01-17T15:35:49.952Z,51.291550
